createdAt,value
2019-03-30T00:00:56.796Z,37.67
2019-03-30T00:03:29.488Z,38.28
2019-03-30T00:06:03.150Z,38.63
2019-03-30T00:08:34.639Z,46.53
2019-03-30T00:11:07.872Z,118.22
2019-03-30T00:13:40.981Z,48.15
2019-03-30T00:16:17.297Z,41.55
2019-03-30T00:18:50.234Z,41.48
2019-03-30T00:21:25.115Z,41.10
2019-03-30T00:23:57.883Z,48.50
2019-03-30T00:26:29.635Z,43.92
2019-03-30T00:29:02.297Z,45.30
2019-03-30T00:31:38.129Z,44.05
2019-03-30T00:34:11.200Z,42.53
2019-03-30T00:36:44.307Z,44.33
2019-03-30T00:39:17.003Z,41.13
2019-03-30T00:41:53.209Z,42.03
2019-03-30T00:44:25.013Z,42.90
2019-03-30T00:46:56.526Z,44.77
2019-03-30T00:49:27.924Z,43.83
2019-03-30T00:52:00.721Z,41.28
2019-03-30T00:54:33.492Z,40.58
2019-03-30T00:57:10.025Z,44.13
2019-03-30T00:59:42.786Z,39.90
2019-03-30T01:02:18.814Z,41.53
2019-03-30T01:04:52.924Z,41.13
2019-03-30T01:07:25.700Z,68.78
2019-03-30T01:09:58.905Z,39.42
2019-03-30T01:12:30.536Z,40.58
2019-03-30T01:15:05.370Z,38.05
2019-03-30T01:17:38.202Z,39.15
2019-03-30T01:20:16.458Z,38.80
2019-03-30T01:22:49.073Z,40.95
2019-03-30T01:25:22.167Z,37.67
2019-03-30T01:27:55.273Z,38.40
2019-03-30T01:30:36.110Z,37.28
2019-03-30T01:33:07.794Z,37.85
2019-03-30T01:35:39.436Z,35.88
2019-03-30T01:38:10.944Z,34.95
2019-03-30T01:40:43.745Z,37.60
2019-03-30T01:43:22.426Z,35.52
2019-03-30T01:45:55.698Z,36.60
2019-03-30T01:48:27.217Z,35.83
2019-03-30T01:51:07.350Z,36.85
2019-03-30T01:53:42.797Z,37.15
2019-03-30T01:56:22.153Z,38.48
2019-03-30T01:58:59.997Z,37.78
2019-03-30T02:01:32.441Z,35.38
2019-03-30T02:04:04.145Z,38.38
2019-03-30T02:06:37.409Z,37.73
2019-03-30T02:09:10.441Z,35.63
2019-03-30T02:11:43.685Z,33.58
2019-03-30T02:14:18.864Z,34.67
2019-03-30T02:16:50.405Z,32.90
2019-03-30T02:19:23.359Z,34.20
2019-03-30T02:21:56.468Z,34.98
2019-03-30T02:24:29.502Z,36.03
2019-03-30T02:27:01.001Z,35.38
2019-03-30T02:29:33.835Z,36.03
2019-03-30T02:32:07.075Z,34.35
2019-03-30T02:34:42.628Z,34.53
2019-03-30T02:37:15.614Z,34.33
2019-03-30T02:39:54.920Z,33.67
2019-03-30T02:42:27.603Z,33.20
2019-03-30T02:45:02.715Z,33.42
2019-03-30T02:47:38.062Z,35.05
2019-03-30T02:52:42.759Z,32.73
2019-03-30T02:55:17.753Z,30.50
2019-03-30T02:57:50.446Z,30.88
2019-03-30T03:00:22.277Z,30.45
2019-03-30T03:02:55.076Z,30.97
2019-03-30T03:05:28.393Z,31.42
2019-03-30T03:08:01.142Z,31.02
2019-03-30T03:10:36.348Z,30.08
2019-03-30T03:13:09.173Z,29.48
2019-03-30T03:15:42.425Z,29.57
2019-03-30T03:18:14.032Z,30.50
2019-03-30T03:20:47.494Z,29.05
2019-03-30T03:23:20.595Z,29.02
2019-03-30T03:25:53.420Z,30.12
2019-03-30T03:28:26.284Z,29.48
2019-03-30T03:30:57.907Z,30.62
2019-03-30T03:33:30.860Z,30.15
2019-03-30T03:36:03.875Z,29.85
2019-03-30T03:41:27.689Z,29.80
2019-03-30T03:44:00.509Z,28.20
2019-03-30T03:46:33.205Z,29.05
2019-03-30T03:52:26.843Z,29.77
2019-03-30T03:54:59.582Z,28.40
2019-03-30T03:57:31.371Z,27.93
2019-03-30T04:00:07.056Z,25.80
2019-03-30T04:02:40.950Z,26.40
2019-03-30T04:05:14.247Z,26.25
2019-03-30T04:07:47.587Z,25.92
2019-03-30T04:10:20.541Z,25.57
2019-03-30T04:12:56.960Z,26.60
2019-03-30T04:15:31.198Z,26.62
2019-03-30T04:18:02.878Z,27.48
2019-03-30T04:20:36.036Z,24.70
2019-03-30T04:23:09.903Z,26.57
2019-03-30T04:25:45.351Z,25.92
2019-03-30T04:28:18.271Z,24.52
2019-03-30T04:30:51.188Z,25.90
2019-03-30T04:33:26.530Z,24.82
2019-03-30T04:35:59.429Z,24.70
2019-03-30T04:38:32.391Z,22.77
2019-03-30T04:41:05.408Z,23.27
2019-03-30T04:43:43.435Z,23.30
2019-03-30T04:46:20.141Z,25.05
2019-03-30T04:48:52.915Z,22.75
2019-03-30T04:51:28.231Z,23.85
2019-03-30T04:53:59.975Z,23.65
2019-03-30T04:56:41.964Z,24.23
2019-03-30T04:59:16.474Z,22.52
2019-03-30T05:01:49.353Z,24.25
2019-03-30T05:04:28.017Z,24.20
2019-03-30T05:07:01.451Z,23.52
2019-03-30T05:09:36.821Z,24.27
2019-03-30T05:12:14.119Z,23.25
2019-03-30T05:14:45.818Z,22.98
2019-03-30T05:17:19.111Z,24.35
2019-03-30T05:19:51.875Z,23.02
2019-03-30T05:22:23.521Z,22.67
2019-03-30T05:24:57.125Z,23.35
2019-03-30T05:27:30.290Z,24.18
2019-03-30T05:30:06.449Z,23.90
2019-03-30T05:32:41.995Z,24.18
2019-03-30T05:35:20.913Z,24.32
2019-03-30T05:37:54.401Z,24.37
2019-03-30T05:40:26.098Z,24.10
2019-03-30T05:43:01.390Z,22.52
2019-03-30T05:45:36.752Z,22.60
2019-03-30T05:48:08.571Z,22.98
2019-03-30T05:50:41.574Z,23.07
2019-03-30T05:53:14.352Z,22.75
2019-03-30T05:55:47.330Z,23.25
2019-03-30T05:58:20.193Z,22.48
2019-03-30T06:00:58.089Z,22.35
2019-03-30T06:03:30.958Z,24.18
2019-03-30T06:06:06.261Z,23.35
2019-03-30T06:08:39.161Z,23.35
2019-03-30T06:11:12.735Z,22.80
2019-03-30T06:13:44.628Z,22.30
2019-03-30T06:16:20.414Z,21.70
2019-03-30T06:18:53.712Z,21.97
2019-03-30T06:21:28.894Z,21.50
2019-03-30T06:24:02.121Z,21.82
2019-03-30T06:26:35.307Z,22.22
2019-03-30T06:29:08.626Z,21.85
2019-03-30T06:31:40.207Z,21.85
2019-03-30T06:34:13.071Z,21.70
2019-03-30T06:36:45.828Z,20.82
2019-03-30T06:39:18.718Z,20.90
2019-03-30T06:41:50.241Z,20.50
2019-03-30T06:44:25.562Z,20.55
2019-03-30T06:47:06.263Z,20.08
2019-03-30T06:49:41.532Z,20.88
2019-03-30T06:52:13.236Z,20.60
2019-03-30T06:54:49.218Z,19.12
2019-03-30T06:57:24.844Z,20.65
2019-03-30T06:59:59.975Z,20.00
2019-03-30T07:02:32.813Z,20.10
2019-03-30T07:05:05.861Z,20.02
2019-03-30T07:07:38.741Z,19.10
2019-03-30T07:10:12.303Z,19.37
2019-03-30T07:12:52.508Z,18.32
2019-03-30T07:15:24.243Z,19.62
2019-03-30T07:17:57.478Z,17.85
2019-03-30T07:20:33.009Z,19.10
2019-03-30T07:23:11.698Z,16.60
2019-03-30T07:25:42.650Z,18.32
2019-03-30T07:28:14.052Z,17.20
2019-03-30T07:30:47.302Z,17.35
2019-03-30T07:33:20.092Z,17.35
2019-03-30T07:35:51.849Z,18.30
2019-03-30T07:38:25.029Z,18.23
2019-03-30T07:40:56.880Z,17.15
2019-03-30T07:43:29.805Z,17.50
2019-03-30T07:46:02.779Z,17.60
2019-03-30T07:48:41.750Z,17.55
2019-03-30T07:51:18.602Z,16.62
2019-03-30T07:53:51.466Z,17.35
2019-03-30T07:56:23.130Z,17.32
2019-03-30T07:58:56.104Z,17.23
2019-03-30T08:01:29.048Z,17.85
2019-03-30T08:04:02.150Z,15.98
2019-03-30T08:06:35.623Z,17.00
2019-03-30T08:09:09.970Z,16.35
2019-03-30T08:11:41.527Z,16.45
2019-03-30T08:14:14.872Z,14.75
2019-03-30T08:16:47.565Z,16.50
2019-03-30T08:19:21.883Z,16.40
2019-03-30T08:21:55.299Z,17.65
2019-03-30T08:24:28.170Z,17.42
2019-03-30T08:27:00.883Z,17.12
2019-03-30T08:29:33.910Z,16.93
2019-03-30T08:32:06.867Z,16.67
2019-03-30T08:34:46.640Z,17.55
2019-03-30T08:37:19.640Z,16.37
2019-03-30T08:39:52.819Z,16.52
2019-03-30T08:42:26.047Z,17.32
2019-03-30T08:44:59.601Z,16.77
2019-03-30T08:47:34.847Z,15.63
2019-03-30T08:50:09.661Z,17.15
2019-03-30T08:55:18.739Z,17.27
2019-03-30T08:57:52.058Z,18.15
2019-03-30T09:00:27.188Z,18.27
2019-03-30T09:03:02.478Z,19.25
2019-03-30T09:05:35.750Z,19.25
2019-03-30T09:08:11.339Z,18.50
2019-03-30T09:10:43.234Z,19.50
2019-03-30T09:13:19.649Z,18.77
2019-03-30T09:15:52.485Z,18.30
2019-03-30T09:18:25.651Z,17.87
2019-03-30T09:20:58.830Z,18.32
2019-03-30T09:23:32.252Z,18.48
2019-03-30T09:26:05.195Z,17.95
2019-03-30T09:28:38.098Z,18.00
2019-03-30T09:31:10.850Z,18.37
2019-03-30T09:33:43.572Z,18.45
2019-03-30T09:36:15.154Z,18.15
2019-03-30T09:38:48.294Z,17.95
2019-03-30T09:41:21.341Z,18.40
2019-03-30T09:43:54.259Z,19.20
2019-03-30T09:46:25.712Z,18.73
2019-03-30T09:48:57.262Z,18.52
2019-03-30T09:51:29.031Z,17.95
2019-03-30T09:54:04.325Z,17.65
2019-03-30T09:56:37.312Z,17.57
2019-03-30T09:59:10.893Z,18.10
2019-03-30T10:01:42.700Z,17.15
2019-03-30T10:04:15.823Z,16.70
2019-03-30T10:06:49.174Z,16.95
2019-03-30T10:09:22.348Z,16.93
2019-03-30T10:11:57.633Z,17.17
2019-03-30T10:14:30.722Z,17.40
2019-03-30T10:17:02.500Z,17.95
2019-03-30T10:19:36.440Z,17.82
2019-03-30T10:22:09.773Z,22.43
2019-03-30T10:24:44.235Z,19.52
2019-03-30T10:27:19.522Z,19.10
2019-03-30T10:29:54.859Z,17.42
2019-03-30T10:32:26.445Z,18.23
2019-03-30T10:34:58.254Z,17.62
2019-03-30T10:37:31.123Z,18.75
2019-03-30T10:40:04.075Z,18.27
2019-03-30T10:42:35.854Z,18.55
2019-03-30T10:45:14.851Z,18.05
2019-03-30T10:47:47.531Z,18.35
2019-03-30T10:50:25.072Z,18.67
2019-03-30T10:52:58.411Z,19.70
2019-03-30T10:55:31.476Z,18.90
2019-03-30T10:58:04.145Z,19.15
2019-03-30T11:00:39.402Z,18.30
2019-03-30T11:03:14.675Z,18.52
2019-03-30T11:05:47.987Z,19.20
2019-03-30T11:08:20.824Z,20.10
2019-03-30T11:10:52.581Z,19.37
2019-03-30T11:13:27.217Z,19.05
2019-03-30T11:16:02.543Z,20.62
2019-03-30T11:18:34.454Z,20.55
2019-03-30T11:21:08.034Z,19.82
2019-03-30T11:23:43.781Z,20.85
2019-03-30T11:26:15.427Z,22.60
2019-03-30T11:28:50.703Z,22.10
2019-03-30T11:31:25.556Z,21.25
2019-03-30T11:36:33.366Z,20.15
2019-03-30T11:39:06.063Z,18.60
2019-03-30T11:41:39.354Z,20.20
2019-03-30T11:44:12.540Z,19.20
2019-03-30T11:46:45.683Z,19.65
2019-03-30T11:49:17.650Z,23.55
2019-03-30T11:51:49.190Z,22.67
2019-03-30T11:54:31.772Z,23.20
2019-03-30T11:57:05.399Z,21.90
2019-03-30T11:59:38.491Z,21.60
2019-03-30T12:02:10.318Z,23.32
2019-03-30T12:04:57.157Z,22.58
2019-03-30T12:07:32.252Z,22.62
2019-03-30T12:12:37.364Z,29.05
2019-03-30T12:15:13.714Z,22.37
2019-03-30T12:17:50.079Z,20.75
2019-03-30T12:20:22.821Z,19.82
2019-03-30T12:22:56.851Z,19.17
2019-03-30T12:25:35.722Z,18.90
2019-03-30T12:28:05.049Z,20.20
2019-03-30T12:30:39.049Z,19.40
2019-03-30T12:33:10.573Z,19.90
2019-03-30T12:35:44.208Z,20.12
2019-03-30T12:38:20.075Z,21.12
2019-03-30T12:41:08.868Z,20.45
2019-03-30T12:43:55.954Z,21.65
2019-03-30T12:46:27.558Z,21.33
2019-03-30T12:49:00.722Z,21.37
2019-03-30T12:51:33.581Z,22.82
2019-03-30T12:54:08.980Z,22.35
2019-03-30T12:56:40.636Z,23.73
2019-03-30T12:59:12.276Z,24.37
2019-03-30T13:01:45.114Z,27.93
2019-03-30T13:04:20.346Z,26.65
2019-03-30T13:06:51.899Z,25.23
2019-03-30T13:09:24.922Z,25.35
2019-03-30T13:11:57.583Z,22.93
2019-03-30T13:14:30.460Z,24.10
2019-03-30T13:17:04.318Z,23.90
2019-03-30T13:19:36.951Z,23.45
2019-03-30T13:22:09.700Z,25.15
2019-03-30T13:24:42.633Z,24.90
2019-03-30T13:27:14.323Z,23.52
2019-03-30T13:29:49.558Z,24.52
2019-03-30T13:32:21.117Z,23.55
2019-03-30T13:34:54.210Z,25.00
2019-03-30T13:37:28.726Z,23.92
2019-03-30T13:40:02.012Z,24.95
2019-03-30T13:42:35.079Z,22.48
2019-03-30T13:45:09.228Z,22.73
2019-03-30T13:47:42.006Z,23.73
2019-03-30T13:50:17.066Z,24.12
2019-03-30T13:52:50.067Z,24.90
2019-03-30T13:55:23.564Z,24.25
2019-03-30T13:57:56.260Z,24.07
2019-03-30T14:00:32.077Z,23.42
2019-03-30T14:03:05.140Z,22.73
2019-03-30T14:05:37.887Z,22.60
2019-03-30T14:08:10.948Z,23.90
2019-03-30T14:10:43.799Z,25.17
2019-03-30T14:13:17.066Z,24.37
2019-03-30T14:15:50.870Z,25.67
2019-03-30T14:18:23.956Z,25.20
2019-03-30T14:20:57.263Z,25.80
2019-03-30T14:23:32.817Z,24.90
2019-03-30T14:26:05.627Z,22.07
2019-03-30T14:28:40.045Z,23.85
2019-03-30T14:31:15.234Z,25.20
2019-03-30T14:33:52.103Z,27.25
2019-03-30T14:36:24.884Z,31.40
2019-03-30T14:38:57.984Z,30.02
2019-03-30T14:41:29.641Z,31.00
2019-03-30T14:44:01.442Z,30.82
2019-03-30T14:46:34.343Z,34.18
2019-03-30T14:49:06.001Z,32.38
2019-03-30T14:51:37.543Z,32.93
2019-03-30T14:54:09.093Z,33.80
2019-03-30T14:56:45.989Z,34.33
2019-03-30T14:59:18.371Z,35.65
2019-03-30T15:01:53.778Z,38.45
2019-03-30T15:04:28.485Z,38.25
2019-03-30T15:07:01.225Z,40.55
2019-03-30T15:09:34.618Z,39.50
2019-03-30T15:12:07.809Z,40.17
2019-03-30T15:14:42.940Z,41.92
2019-03-30T15:19:46.597Z,43.60
2019-03-30T15:22:22.256Z,42.25
2019-03-30T15:24:53.795Z,41.88
2019-03-30T15:27:27.112Z,41.35
2019-03-30T15:30:00.348Z,36.70
2019-03-30T15:32:32.212Z,40.80
2019-03-30T15:35:09.133Z,39.25
2019-03-30T15:37:42.323Z,41.00
2019-03-30T15:40:15.599Z,39.23
2019-03-30T15:42:49.088Z,37.58
2019-03-30T15:45:20.669Z,39.30
2019-03-30T15:48:04.092Z,39.33
2019-03-30T15:50:37.488Z,39.42
2019-03-30T15:53:12.674Z,40.48
2019-03-30T15:55:45.964Z,38.90
2019-03-30T15:58:19.240Z,37.98
2019-03-30T16:00:52.520Z,38.10
2019-03-30T16:03:25.691Z,37.17
2019-03-30T16:05:58.248Z,37.73
2019-03-30T16:08:32.770Z,35.83
2019-03-30T16:11:11.918Z,35.38
2019-03-30T16:13:48.797Z,34.15
2019-03-30T16:16:24.256Z,35.20
2019-03-30T16:18:57.158Z,35.78
2019-03-30T16:21:30.060Z,36.95
2019-03-30T16:24:02.827Z,36.50
2019-03-30T16:26:41.889Z,36.58
2019-03-30T16:29:09.638Z,37.90
2019-03-30T16:31:41.270Z,35.98
2019-03-30T16:34:12.724Z,35.50
2019-03-30T16:36:45.493Z,35.23
2019-03-30T16:39:18.678Z,34.10
2019-03-30T16:41:52.960Z,35.80
2019-03-30T16:44:28.409Z,36.93
2019-03-30T16:47:01.218Z,36.68
2019-03-30T16:49:37.947Z,37.42
2019-03-30T16:52:13.297Z,36.15
2019-03-30T16:54:49.200Z,38.15
2019-03-30T16:57:22.181Z,37.25
2019-03-30T16:59:54.863Z,39.05
2019-03-30T17:02:30.052Z,39.60
2019-03-30T17:07:35.798Z,40.85
2019-03-30T17:10:10.500Z,45.45
2019-03-30T17:12:46.871Z,44.00
2019-03-30T17:15:23.095Z,45.30
2019-03-30T17:17:56.010Z,45.10
2019-03-30T17:20:28.805Z,45.55
2019-03-30T17:23:12.310Z,44.75
2019-03-30T17:25:44.964Z,45.50
2019-03-30T17:28:17.735Z,45.73
2019-03-30T17:30:52.928Z,45.28
2019-03-30T17:35:58.002Z,43.58
2019-03-30T17:38:30.871Z,45.35
2019-03-30T17:41:04.070Z,44.18
2019-03-30T17:43:40.064Z,44.27
2019-03-30T17:46:13.076Z,45.00
2019-03-30T17:48:48.401Z,44.30
2019-03-30T17:51:21.522Z,44.15
2019-03-30T17:53:54.387Z,42.73
2019-03-30T17:56:26.091Z,42.27
2019-03-30T17:58:59.950Z,45.25
2019-03-30T18:01:32.910Z,42.67
2019-03-30T18:04:05.966Z,42.67
2019-03-30T18:06:37.622Z,42.03
2019-03-30T18:09:10.872Z,41.63
2019-03-30T18:11:44.464Z,42.27
2019-03-30T18:14:17.536Z,40.58
2019-03-30T18:16:53.709Z,38.70
2019-03-30T18:19:26.605Z,39.63
2019-03-30T18:21:59.246Z,39.08
2019-03-30T18:24:35.056Z,37.28
2019-03-30T18:27:06.756Z,39.40
2019-03-30T18:29:40.721Z,38.78
2019-03-30T18:32:13.531Z,37.25
2019-03-30T18:34:47.019Z,36.55
2019-03-30T18:37:19.226Z,37.78
2019-03-30T18:39:52.130Z,35.95
2019-03-30T18:42:23.929Z,35.50
2019-03-30T18:44:57.806Z,36.03
2019-03-30T18:47:30.527Z,34.85
2019-03-30T18:50:03.329Z,35.15
2019-03-30T18:52:36.197Z,35.28
2019-03-30T18:55:12.086Z,39.95
2019-03-30T18:57:52.093Z,41.40
2019-03-30T19:00:26.172Z,42.55
2019-03-30T19:02:57.826Z,45.45
2019-03-30T19:05:34.399Z,47.50
2019-03-30T19:08:07.943Z,51.00
2019-03-30T19:10:45.801Z,47.95
2019-03-30T19:13:17.846Z,50.12
2019-03-30T19:15:59.741Z,47.67
2019-03-30T19:18:34.953Z,50.12
2019-03-30T19:21:07.951Z,51.18
2019-03-30T19:23:41.587Z,49.95
2019-03-30T19:26:14.539Z,49.75
2019-03-30T19:28:56.210Z,49.25
2019-03-30T19:31:23.061Z,50.28
2019-03-30T19:33:55.214Z,50.88
2019-03-30T19:36:30.909Z,49.98
2019-03-30T19:39:02.570Z,51.75
2019-03-30T19:41:36.033Z,52.25
2019-03-30T19:44:08.694Z,50.80
2019-03-30T19:46:42.636Z,49.20
2019-03-30T19:49:15.403Z,47.88
2019-03-30T19:51:48.094Z,49.42
2019-03-30T19:54:19.638Z,48.75
2019-03-30T19:56:54.837Z,49.38
2019-03-30T19:59:27.900Z,46.75
2019-03-30T20:02:00.741Z,48.20
2019-03-30T20:04:33.615Z,48.98
2019-03-30T20:07:06.257Z,52.50
2019-03-30T20:09:37.826Z,52.95
2019-03-30T20:12:10.925Z,54.13
2019-03-30T20:14:43.981Z,55.75
2019-03-30T20:17:16.789Z,52.60
2019-03-30T20:19:50.029Z,54.27
2019-03-30T20:22:21.687Z,53.48
2019-03-30T20:24:54.641Z,55.15
2019-03-30T20:27:27.649Z,53.83
2019-03-30T20:29:59.301Z,56.25
2019-03-30T20:32:32.221Z,56.63
2019-03-30T20:35:03.942Z,52.50
2019-03-30T20:37:35.696Z,55.55
2019-03-30T20:40:09.574Z,52.70
2019-03-30T20:42:44.950Z,56.63
2019-03-30T20:45:18.451Z,56.02
2019-03-30T20:47:51.994Z,54.48
2019-03-30T20:50:23.661Z,56.10
2019-03-30T20:52:56.548Z,58.30
2019-03-30T20:55:36.376Z,61.63
2019-03-30T20:58:08.098Z,62.30
2019-03-30T21:00:39.635Z,58.83
2019-03-30T21:03:14.215Z,57.05
2019-03-30T21:05:45.778Z,60.90
2019-03-30T21:08:18.591Z,61.55
2019-03-30T21:10:50.282Z,60.30
2019-03-30T21:13:21.912Z,63.10
2019-03-30T21:15:55.073Z,61.45
2019-03-30T21:18:28.074Z,59.73
2019-03-30T21:20:59.617Z,59.05
2019-03-30T21:23:32.750Z,61.90
2019-03-30T21:26:08.128Z,62.53
2019-03-30T21:28:41.012Z,63.10
2019-03-30T21:31:13.952Z,61.70
2019-03-30T21:33:45.788Z,63.05
2019-03-30T21:36:19.051Z,63.45
2019-03-30T21:38:52.082Z,60.08
2019-03-30T21:41:25.356Z,59.83
2019-03-30T21:43:56.930Z,59.30
2019-03-30T21:46:28.567Z,57.78
2019-03-30T21:49:01.667Z,53.73
2019-03-30T21:51:33.222Z,52.60
2019-03-30T21:54:09.307Z,53.42
2019-03-30T21:56:42.339Z,52.98
2019-03-30T21:59:14.086Z,49.13
2019-03-30T22:01:45.639Z,49.38
2019-03-30T22:04:20.704Z,51.08
2019-03-30T22:06:57.009Z,49.77
2019-03-30T22:09:28.909Z,48.95
2019-03-30T22:12:00.449Z,47.10
2019-03-30T22:14:32.031Z,49.55
2019-03-30T22:17:04.969Z,49.98
2019-03-30T22:19:37.769Z,48.48
2019-03-30T22:22:09.334Z,49.55
2019-03-30T22:24:42.126Z,48.23
2019-03-30T22:27:15.090Z,50.28
2019-03-30T22:29:46.640Z,48.23
2019-03-30T22:32:18.234Z,48.28
2019-03-30T22:34:51.022Z,48.38
2019-03-30T22:37:22.814Z,47.40
2019-03-30T22:39:54.454Z,45.25
2019-03-30T22:42:27.033Z,45.90
2019-03-30T22:44:58.675Z,44.83
2019-03-30T22:47:31.562Z,46.58
2019-03-30T22:50:04.859Z,45.05
2019-03-30T22:52:36.878Z,70.37
2019-03-30T22:55:09.243Z,102.55
2019-03-30T22:57:42.027Z,48.00
2019-03-30T23:00:14.859Z,46.08
2019-03-30T23:02:50.011Z,45.08
2019-03-30T23:05:21.662Z,42.58
2019-03-30T23:07:56.602Z,44.05
2019-03-30T23:10:28.147Z,45.12
2019-03-30T23:13:01.717Z,44.77
2019-03-30T23:15:33.409Z,42.78
2019-03-30T23:18:05.170Z,66.07
2019-03-30T23:20:41.234Z,48.68
2019-03-30T23:23:12.984Z,47.50
2019-03-30T23:25:45.884Z,50.38
2019-03-30T23:28:17.634Z,51.65
2019-03-30T23:30:54.625Z,56.92
2019-03-30T23:33:23.399Z,48.85
2019-03-30T23:35:57.103Z,42.78
2019-03-30T23:38:29.916Z,59.30
2019-03-30T23:41:03.368Z,96.70
2019-03-30T23:43:34.907Z,45.33
2019-03-30T23:46:07.919Z,44.30
2019-03-30T23:48:44.166Z,52.70
2019-03-30T23:51:17.010Z,43.13
2019-03-30T23:53:48.521Z,42.05
2019-03-30T23:56:24.395Z,42.45
2019-03-30T23:58:57.359Z,43.68
